sensor_id;sensor_type;location;lat;lon;timestamp;pressure;altitude;pressure_sealevel;temperature;humidity
60337;BME280;46978;50.288;28.624;2022-12-20T00:00:25;100857.89;;;-9.11;97.36
60337;BME280;46978;50.288;28.624;2022-12-20T00:01:30;100856.24;;;-9.11;97.33
60337;BME280;46978;50.288;28.624;2022-12-20T00:02:32;100855.63;;;-9.08;97.31
60337;BME280;46978;50.288;28.624;2022-12-20T00:03:33;100860.66;;;-9.08;97.10
60337;BME280;46978;50.288;28.624;2022-12-20T00:04:35;100859.92;;;-9.07;96.90
60337;BME280;46978;50.288;28.624;2022-12-20T00:05:38;100862.56;;;-9.06;96.82
60337;BME280;46978;50.288;28.624;2022-12-20T00:06:40;100859.92;;;-9.07;96.77
60337;BME280;46978;50.288;28.624;2022-12-20T00:07:42;100853.25;;;-9.07;96.78
60337;BME280;46978;50.288;28.624;2022-12-20T00:08:44;100849.86;;;-9.07;96.78
60337;BME280;46978;50.288;28.624;2022-12-20T00:09:46;100860.05;;;-9.06;96.74
60337;BME280;46978;50.288;28.624;2022-12-20T00:10:48;100860.05;;;-9.06;96.70
60337;BME280;46978;50.288;28.624;2022-12-20T00:11:50;100843.31;;;-9.05;96.71
60337;BME280;46978;50.288;28.624;2022-12-20T00:12:52;100847.60;;;-9.04;96.75
60337;BME280;46978;50.288;28.624;2022-12-20T00:13:53;100841.06;;;-9.02;96.63
60337;BME280;46978;50.288;28.624;2022-12-20T00:15:15;100826.97;;;-9.00;96.65
60337;BME280;46978;50.288;28.624;2022-12-20T00:16:20;100816.16;;;-8.99;96.50
60337;BME280;46978;50.288;28.624;2022-12-20T00:17:22;100807.88;;;-8.98;96.36
60337;BME280;46978;50.288;28.624;2022-12-20T00:18:23;100804.72;;;-8.95;96.30
60337;BME280;46978;50.288;28.624;2022-12-20T00:19:25;100805.62;;;-8.95;96.22
60337;BME280;46978;50.288;28.624;2022-12-20T00:20:28;100804.84;;;-8.94;96.17
60337;BME280;46978;50.288;28.624;2022-12-20T00:21:32;100806.61;;;-8.93;96.11
60337;BME280;46978;50.288;28.624;2022-12-20T00:22:34;100805.09;;;-8.91;96.07
60337;BME280;46978;50.288;28.624;2022-12-20T00:23:36;100808.52;;;-8.90;95.96
60337;BME280;46978;50.288;28.624;2022-12-20T00:24:38;100804.35;;;-8.90;95.98
60337;BME280;46978;50.288;28.624;2022-12-20T00:25:39;100801.09;;;-8.89;95.97
60337;BME280;46978;50.288;28.624;2022-12-20T00:26:41;100798.70;;;-8.87;95.87
60337;BME280;46978;50.288;28.624;2022-12-20T00:27:43;100807.12;;;-8.87;95.80
60337;BME280;46978;50.288;28.624;2022-12-20T00:28:44;100812.28;;;-8.85;95.80
60337;BME280;46978;50.288;28.624;2022-12-20T00:29:46;100800.56;;;-8.85;95.59
60337;BME280;46978;50.288;28.624;2022-12-20T00:30:53;100802.34;;;-8.84;95.46
60337;BME280;46978;50.288;28.624;2022-12-20T00:31:54;100796.56;;;-8.82;95.48
60337;BME280;46978;50.288;28.624;2022-12-20T00:32:56;100793.40;;;-8.80;95.02
60337;BME280;46978;50.288;28.624;2022-12-20T00:33:59;100793.40;;;-8.80;95.02
60337;BME280;46978;50.288;28.624;2022-12-20T00:35:01;100790.14;;;-8.79;95.16
60337;BME280;46978;50.288;28.624;2022-12-20T00:36:04;100788.49;;;-8.78;95.14
60337;BME280;46978;50.288;28.624;2022-12-20T00:37:07;100790.27;;;-8.77;95.06
60337;BME280;46978;50.288;28.624;2022-12-20T00:38:08;100787.62;;;-8.79;95.06
60337;BME280;46978;50.288;28.624;2022-12-20T00:39:10;100785.23;;;-8.77;95.11
60337;BME280;46978;50.288;28.624;2022-12-20T00:40:12;100785.23;;;-8.77;95.06
60337;BME280;46978;50.288;28.624;2022-12-20T00:41:17;100789.52;;;-8.76;94.99
60337;BME280;46978;50.288;28.624;2022-12-20T00:42:19;100776.04;;;-8.77;94.89
60337;BME280;46978;50.288;28.624;2022-12-20T00:43:21;100767.62;;;-8.77;94.86
60337;BME280;46978;50.288;28.624;2022-12-20T00:44:22;100760.95;;;-8.77;94.86
60337;BME280;46978;50.288;28.624;2022-12-20T00:45:24;100750.02;;;-8.77;94.76
60337;BME280;46978;50.288;28.624;2022-12-20T00:46:26;100755.17;;;-8.76;94.59
60337;BME280;46978;50.288;28.624;2022-12-20T00:47:28;100758.55;;;-8.75;94.57
60337;BME280;46978;50.288;28.624;2022-12-20T00:48:30;100750.27;;;-8.74;94.62
60337;BME280;46978;50.288;28.624;2022-12-20T00:49:32;100753.52;;;-8.75;94.62
60337;BME280;46978;50.288;28.624;2022-12-20T00:50:34;100759.58;;;-8.73;94.60
60337;BME280;46978;50.288;28.624;2022-12-20T00:51:35;100768.13;;;-8.71;94.58
60337;BME280;46978;50.288;28.624;2022-12-20T00:52:37;100764.73;;;-8.72;94.50
60337;BME280;46978;50.288;28.624;2022-12-20T00:53:39;100770.77;;;-8.70;94.45
60337;BME280;46978;50.288;28.624;2022-12-20T00:54:41;100777.56;;;-8.69;94.32
60337;BME280;46978;50.288;28.624;2022-12-20T00:55:44;100766.60;;;-8.69;94.15
60337;BME280;46978;50.288;28.624;2022-12-20T00:56:46;100765.86;;;-8.68;94.07
60337;BME280;46978;50.288;28.624;2022-12-20T00:57:48;100766.84;;;-8.66;94.03
60337;BME280;46978;50.288;28.624;2022-12-20T00:58:49;100767.75;;;-8.66;94.00
60337;BME280;46978;50.288;28.624;2022-12-20T00:59:51;100766.84;;;-8.66;93.93
60337;BME280;46978;50.288;28.624;2022-12-20T01:00:53;100768.63;;;-8.65;93.85
60337;BME280;46978;50.288;28.624;2022-12-20T01:01:55;100762.31;;;-8.60;93.54
60337;BME280;46978;50.288;28.624;2022-12-20T01:02:56;100762.31;;;-8.60;93.54
60337;BME280;46978;50.288;28.624;2022-12-20T01:03:59;100761.44;;;-8.60;93.73
60337;BME280;46978;50.288;28.624;2022-12-20T01:05:01;100751.38;;;-8.60;93.74
60337;BME280;46978;50.288;28.624;2022-12-20T01:06:02;100748.98;;;-8.59;93.76
60337;BME280;46978;50.288;28.624;2022-12-20T01:07:04;100747.45;;;-8.57;93.76
60337;BME280;46978;50.288;28.624;2022-12-20T01:08:06;100741.56;;;-8.57;93.81
60337;BME280;46978;50.288;28.624;2022-12-20T01:09:09;100735.78;;;-8.56;93.63
60337;BME280;46978;50.288;28.624;2022-12-20T01:10:10;100735.00;;;-8.55;93.59
60337;BME280;46978;50.288;28.624;2022-12-20T01:11:18;100724.19;;;-8.54;93.56
60337;BME280;46978;50.288;28.624;2022-12-20T01:12:20;100731.11;;;-8.52;93.16
60337;BME280;46978;50.288;28.624;2022-12-20T01:13:22;100723.69;;;-8.50;93.20
60337;BME280;46978;50.288;28.624;2022-12-20T01:14:23;100719.52;;;-8.50;93.06
60337;BME280;46978;50.288;28.624;2022-12-20T01:15:25;100728.96;;;-8.47;92.88
60337;BME280;46978;50.288;28.624;2022-12-20T01:16:30;100724.80;;;-8.47;92.82
60337;BME280;46978;50.288;28.624;2022-12-20T01:17:32;100723.15;;;-8.46;92.74
60337;BME280;46978;50.288;28.624;2022-12-20T01:18:34;100727.31;;;-8.47;92.75
60337;BME280;46978;50.288;28.624;2022-12-20T01:19:36;100717.25;;;-8.47;92.70
60337;BME280;46978;50.288;28.624;2022-12-20T01:20:37;100717.25;;;-8.47;92.73
60337;BME280;46978;50.288;28.624;2022-12-20T01:21:40;100715.59;;;-8.46;92.69
60337;BME280;46978;50.288;28.624;2022-12-20T01:22:41;100717.37;;;-8.45;92.61
60337;BME280;46978;50.288;28.624;2022-12-20T01:23:43;100709.94;;;-8.43;92.63
60337;BME280;46978;50.288;28.624;2022-12-20T01:24:44;100708.37;;;-8.41;92.33
60337;BME280;46978;50.288;28.624;2022-12-20T01:25:49;100710.15;;;-8.40;92.33
60337;BME280;46978;50.288;28.624;2022-12-20T01:26:51;100708.50;;;-8.40;92.23
60337;BME280;46978;50.288;28.624;2022-12-20T01:27:53;100706.10;;;-8.38;92.11
60337;BME280;46978;50.288;28.624;2022-12-20T01:28:57;100703.58;;;-8.38;91.99
60337;BME280;46978;50.288;28.624;2022-12-20T01:29:59;100701.97;;;-8.38;91.99
60337;BME280;46978;50.288;28.624;2022-12-20T01:31:01;100705.36;;;-8.37;91.84
60337;BME280;46978;50.288;28.624;2022-12-20T01:32:05;100699.58;;;-8.36;91.72
60337;BME280;46978;50.288;28.624;2022-12-20T01:33:06;100699.03;;;-8.32;91.66
60337;BME280;46978;50.288;28.624;2022-12-20T01:34:08;100700.68;;;-8.33;91.42
60337;BME280;46978;50.288;28.624;2022-12-20T01:35:10;100704.31;;;-8.29;91.30
60337;BME280;46978;50.288;28.624;2022-12-20T01:36:23;100699.27;;;-8.29;91.30
60337;BME280;46978;50.288;28.624;2022-12-20T01:37:25;100701.91;;;-8.27;90.90
60337;BME280;46978;50.288;28.624;2022-12-20T01:38:28;100702.03;;;-8.26;90.91
60337;BME280;46978;50.288;28.624;2022-12-20T01:39:29;100703.80;;;-8.25;90.78
60337;BME280;46978;50.288;28.624;2022-12-20T01:40:31;100702.39;;;-8.21;90.51
60337;BME280;46978;50.288;28.624;2022-12-20T01:41:34;100690.70;;;-8.21;90.51
60337;BME280;46978;50.288;28.624;2022-12-20T01:42:36;100694.21;;;-8.19;90.55
60337;BME280;46978;50.288;28.624;2022-12-20T01:43:56;100689.92;;;-8.20;90.42
60337;BME280;46978;50.288;28.624;2022-12-20T01:44:58;100689.17;;;-8.19;90.48
60337;BME280;46978;50.288;28.624;2022-12-20T01:46:00;100679.85;;;-8.20;90.49
60337;BME280;46978;50.288;28.624;2022-12-20T01:47:02;100689.17;;;-8.19;90.45
60337;BME280;46978;50.288;28.624;2022-12-20T01:48:04;100691.81;;;-8.17;90.09
60337;BME280;46978;50.288;28.624;2022-12-20T01:50:15;100690.16;;;-8.17;89.94
60337;BME280;46978;50.288;28.624;2022-12-20T01:51:17;100690.16;;;-8.17;89.82
60337;BME280;46978;50.288;28.624;2022-12-20T01:52:29;100696.84;;;-8.17;89.86
60337;BME280;46978;50.288;28.624;2022-12-20T01:53:31;100694.95;;;-8.20;89.87
60337;BME280;46978;50.288;28.624;2022-12-20T01:54:41;100689.92;;;-8.20;89.92
60337;BME280;46978;50.288;28.624;2022-12-20T01:55:43;100687.28;;;-8.21;89.87
60337;BME280;46978;50.288;28.624;2022-12-20T01:56:50;100689.17;;;-8.19;89.54
60337;BME280;46978;50.288;28.624;2022-12-20T01:57:57;100686.66;;;-8.19;89.59
60337;BME280;46978;50.288;28.624;2022-12-20T01:58:59;100679.97;;;-8.18;89.59
60337;BME280;46978;50.288;28.624;2022-12-20T02:00:03;100679.10;;;-8.19;89.57
60337;BME280;46978;50.288;28.624;2022-12-20T02:01:05;100685.00;;;-8.18;89.54
60337;BME280;46978;50.288;28.624;2022-12-20T02:02:10;100679.10;;;-8.19;89.21
60337;BME280;46978;50.288;28.624;2022-12-20T02:03:13;100679.10;;;-8.19;89.21
60337;BME280;46978;50.288;28.624;2022-12-20T02:04:36;100681.63;;;-8.19;89.21
60337;BME280;46978;50.288;28.624;2022-12-20T02:05:41;100678.35;;;-8.18;89.19
60337;BME280;46978;50.288;28.624;2022-12-20T02:06:43;100675.84;;;-8.18;89.19
60337;BME280;46978;50.288;28.624;2022-12-20T02:07:47;100669.14;;;-8.17;89.20
60337;BME280;46978;50.288;28.624;2022-12-20T02:08:50;100676.70;;;-8.17;89.24
60337;BME280;46978;50.288;28.624;2022-12-20T02:09:54;100668.28;;;-8.18;89.31
60337;BME280;46978;50.288;28.624;2022-12-20T02:13:49;100666.52;;;-8.19;89.27
60337;BME280;46978;50.288;28.624;2022-12-20T02:15:54;100652.15;;;-8.20;89.27
60337;BME280;46978;50.288;28.624;2022-12-20T02:17:19;100658.09;;;-8.19;89.20
60337;BME280;46978;50.288;28.624;2022-12-20T02:18:26;100650.66;;;-8.18;89.21
60337;BME280;46978;50.288;28.624;2022-12-20T02:23:11;100650.77;;;-8.16;89.07
60337;BME280;46978;50.288;28.624;2022-12-20T02:27:29;100644.55;;;-8.09;88.82
60337;BME280;46978;50.288;28.624;2022-12-20T02:30:15;100636.37;;;-8.07;88.72
60337;BME280;46978;50.288;28.624;2022-12-20T02:31:20;100643.92;;;-8.07;88.68
60337;BME280;46978;50.288;28.624;2022-12-20T02:32:25;100636.37;;;-8.07;88.69
60337;BME280;46978;50.288;28.624;2022-12-20T02:33:28;100644.04;;;-8.05;88.67
60337;BME280;46978;50.288;28.624;2022-12-20T02:34:32;100633.06;;;-8.06;88.52
60337;BME280;46978;50.288;28.624;2022-12-20T02:35:36;100630.66;;;-8.04;88.55
60337;BME280;46978;50.288;28.624;2022-12-20T02:36:38;100629.91;;;-8.03;88.58
60337;BME280;46978;50.288;28.624;2022-12-20T02:37:56;100626.64;;;-8.02;88.30
60337;BME280;46978;50.288;28.624;2022-12-20T02:38:57;100626.64;;;-8.02;88.30
60337;BME280;46978;50.288;28.624;2022-12-20T02:39:59;100625.11;;;-8.00;88.20
60337;BME280;46978;50.288;28.624;2022-12-20T02:42:24;100615.16;;;-7.99;88.20
60337;BME280;46978;50.288;28.624;2022-12-20T02:43:29;100618.89;;;-7.94;87.96
60337;BME280;46978;50.288;28.624;2022-12-20T02:44:33;100619.00;;;-7.92;87.58
60337;BME280;46978;50.288;28.624;2022-12-20T02:45:36;100620.77;;;-7.91;87.70
60337;BME280;46978;50.288;28.624;2022-12-20T02:46:38;100620.02;;;-7.90;87.62
60337;BME280;46978;50.288;28.624;2022-12-20T02:47:56;100620.89;;;-7.89;87.61
60337;BME280;46978;50.288;28.624;2022-12-20T02:49:00;100615.17;;;-7.87;87.44
60337;BME280;46978;50.288;28.624;2022-12-20T02:50:06;100605.22;;;-7.85;87.20
60337;BME280;46978;50.288;28.624;2022-12-20T02:51:09;100609.62;;;-7.83;86.84
60337;BME280;46978;50.288;28.624;2022-12-20T02:52:13;100599.66;;;-7.81;86.82
60337;BME280;46978;50.288;28.624;2022-12-20T02:53:16;100604.06;;;-7.79;86.71
60337;BME280;46978;50.288;28.624;2022-12-20T02:54:18;100591.69;;;-7.76;86.78
60337;BME280;46978;50.288;28.624;2022-12-20T02:55:23;100581.84;;;-7.72;86.56
60337;BME280;46978;50.288;28.624;2022-12-20T02:56:35;100578.64;;;-7.70;86.25
60337;BME280;46978;50.288;28.624;2022-12-20T02:58:00;100579.77;;;-7.66;86.29
60337;BME280;46978;50.288;28.624;2022-12-20T02:59:09;100577.48;;;-7.63;86.15
60337;BME280;46978;50.288;28.624;2022-12-20T03:00:14;100571.77;;;-7.61;86.18
60337;BME280;46978;50.288;28.624;2022-12-20T03:01:22;100566.84;;;-7.59;86.44
60337;BME280;46978;50.288;28.624;2022-12-20T03:02:24;100565.44;;;-7.55;86.16
60337;BME280;46978;50.288;28.624;2022-12-20T03:03:27;100563.90;;;-7.53;85.83
60337;BME280;46978;50.288;28.624;2022-12-20T03:04:30;100568.19;;;-7.52;85.67
60337;BME280;46978;50.288;28.624;2022-12-20T03:05:38;100564.88;;;-7.51;85.51
60337;BME280;46978;50.288;28.624;2022-12-20T03:06:39;100558.44;;;-7.48;85.32
60337;BME280;46978;50.288;28.624;2022-12-20T03:07:42;100556.78;;;-7.47;85.02
60337;BME280;46978;50.288;28.624;2022-12-20T03:08:44;100551.09;;;-7.45;84.79
60337;BME280;46978;50.288;28.624;2022-12-20T03:09:46;100554.48;;;-7.44;84.80
60337;BME280;46978;50.288;28.624;2022-12-20T03:10:48;100557.12;;;-7.43;84.16
60337;BME280;46978;50.288;28.624;2022-12-20T03:11:51;100550.53;;;-7.41;83.95
60337;BME280;46978;50.288;28.624;2022-12-20T03:12:53;100549.78;;;-7.40;83.28
60337;BME280;46978;50.288;28.624;2022-12-20T03:13:54;100546.61;;;-7.37;83.61
60337;BME280;46978;50.288;28.624;2022-12-20T03:14:56;100552.52;;;-7.36;83.66
60337;BME280;46978;50.288;28.624;2022-12-20T03:15:57;100546.73;;;-7.35;83.90
60337;BME280;46978;50.288;28.624;2022-12-20T03:16:59;100541.68;;;-7.35;83.86
60337;BME280;46978;50.288;28.624;2022-12-20T03:18:01;100547.59;;;-7.35;83.66
60337;BME280;46978;50.288;28.624;2022-12-20T03:19:03;100550.22;;;-7.33;83.36
60337;BME280;46978;50.288;28.624;2022-12-20T03:20:07;100544.42;;;-7.32;83.41
60337;BME280;46978;50.288;28.624;2022-12-20T03:21:09;100551.20;;;-7.31;83.13
60337;BME280;46978;50.288;28.624;2022-12-20T03:22:11;100547.92;;;-7.30;82.90
60337;BME280;46978;50.288;28.624;2022-12-20T03:23:13;100543.86;;;-7.28;82.72
60337;BME280;46978;50.288;28.624;2022-12-20T03:24:14;100537.30;;;-7.26;82.60
60337;BME280;46978;50.288;28.624;2022-12-20T03:25:16;100537.30;;;-7.26;82.64
60337;BME280;46978;50.288;28.624;2022-12-20T03:26:18;100536.63;;;-7.24;82.50
60337;BME280;46978;50.288;28.624;2022-12-20T03:27:20;100533.45;;;-7.21;82.55
60337;BME280;46978;50.288;28.624;2022-12-20T03:28:21;100524.23;;;-7.21;82.15
60337;BME280;46978;50.288;28.624;2022-12-20T03:29:23;100526.11;;;-7.18;81.73
60337;BME280;46978;50.288;28.624;2022-12-20T03:30:25;100524.56;;;-7.16;82.08
60337;BME280;46978;50.288;28.624;2022-12-20T03:31:27;100522.14;;;-7.14;82.07
60337;BME280;46978;50.288;28.624;2022-12-20T03:32:28;100521.50;;;-7.12;81.64
60337;BME280;46978;50.288;28.624;2022-12-20T03:33:30;100522.47;;;-7.10;81.76
60337;BME280;46978;50.288;28.624;2022-12-20T03:34:32;100510.87;;;-7.08;81.59
60337;BME280;46978;50.288;28.624;2022-12-20T03:35:33;100511.09;;;-7.05;81.22
60337;BME280;46978;50.288;28.624;2022-12-20T03:36:35;100511.30;;;-7.01;81.05
60337;BME280;46978;50.288;28.624;2022-12-20T03:37:37;100502.94;;;-7.00;80.89
60337;BME280;46978;50.288;28.624;2022-12-20T03:38:39;100500.74;;;-6.96;80.85
60337;BME280;46978;50.288;28.624;2022-12-20T03:39:40;100499.23;;;-6.94;80.84
60337;BME280;46978;50.288;28.624;2022-12-20T03:40:42;100495.26;;;-6.90;80.47
60337;BME280;46978;50.288;28.624;2022-12-20T03:41:44;100493.70;;;-6.88;80.02
60337;BME280;46978;50.288;28.624;2022-12-20T03:42:45;100495.69;;;-6.84;79.44
60337;BME280;46978;50.288;28.624;2022-12-20T03:43:48;100492.51;;;-6.81;79.82
60337;BME280;46978;50.288;28.624;2022-12-20T03:44:50;100498.63;;;-6.78;79.43
60337;BME280;46978;50.288;28.624;2022-12-20T03:45:51;100494.56;;;-6.76;79.59
60337;BME280;46978;50.288;28.624;2022-12-20T03:46:53;100498.09;;;-6.74;79.14
60337;BME280;46978;50.288;28.624;2022-12-20T03:47:55;100498.30;;;-6.71;78.83
60337;BME280;46978;50.288;28.624;2022-12-20T03:48:56;100498.52;;;-6.68;79.12
60337;BME280;46978;50.288;28.624;2022-12-20T03:49:58;100496.09;;;-6.66;79.11
60337;BME280;46978;50.288;28.624;2022-12-20T03:51:00;100481.05;;;-6.64;79.02
60337;BME280;46978;50.288;28.624;2022-12-20T03:52:02;100492.98;;;-6.62;78.75
60337;BME280;46978;50.288;28.624;2022-12-20T03:53:04;100494.09;;;-6.58;78.56
60337;BME280;46978;50.288;28.624;2022-12-20T03:54:05;100487.48;;;-6.56;78.29
60337;BME280;46978;50.288;28.624;2022-12-20T03:55:08;100483.41;;;-6.54;78.30
60337;BME280;46978;50.288;28.624;2022-12-20T03:56:10;100484.38;;;-6.52;78.33
60337;BME280;46978;50.288;28.624;2022-12-20T03:57:12;100471.09;;;-6.50;78.54
60337;BME280;46978;50.288;28.624;2022-12-20T03:58:13;100469.55;;;-6.47;77.59
60337;BME280;46978;50.288;28.624;2022-12-20T03:59:15;100473.07;;;-6.45;77.80
60337;BME280;46978;50.288;28.624;2022-12-20T04:00:17;100472.38;;;-6.43;77.77
60337;BME280;46978;50.288;28.624;2022-12-20T04:01:24;100464.15;;;-6.40;77.54
60337;BME280;46978;50.288;28.624;2022-12-20T04:02:27;100456.67;;;-6.39;77.49
60337;BME280;46978;50.288;28.624;2022-12-20T04:03:28;100452.59;;;-6.37;77.54
60337;BME280;46978;50.288;28.624;2022-12-20T04:04:30;100454.35;;;-6.36;77.01
60337;BME280;46978;50.288;28.624;2022-12-20T04:05:32;100447.74;;;-6.34;77.23
60337;BME280;46978;50.288;28.624;2022-12-20T04:06:34;100440.27;;;-6.32;76.91
60337;BME280;46978;50.288;28.624;2022-12-20T04:07:35;100447.19;;;-6.29;76.06
60337;BME280;46978;50.288;28.624;2022-12-20T04:08:37;100434.66;;;-6.28;76.13
60337;BME280;46978;50.288;28.624;2022-12-20T04:09:39;100439.81;;;-6.26;76.17
60337;BME280;46978;50.288;28.624;2022-12-20T04:10:40;100450.12;;;-6.23;75.87
60337;BME280;46978;50.288;28.624;2022-12-20T04:11:42;100453.61;;;-6.21;76.17
60337;BME280;46978;50.288;28.624;2022-12-20T04:13:04;100459.56;;;-6.21;75.71
60337;BME280;46978;50.288;28.624;2022-12-20T04:14:06;100462.95;;;-6.20;75.40
60337;BME280;46978;50.288;28.624;2022-12-20T04:15:08;100464.92;;;-6.16;75.86
60337;BME280;46978;50.288;28.624;2022-12-20T04:16:12;100458.20;;;-6.16;76.08
60337;BME280;46978;50.288;28.624;2022-12-20T04:17:14;100445.67;;;-6.14;75.85
60337;BME280;46978;50.288;28.624;2022-12-20T04:18:16;100441.59;;;-6.12;75.88
60337;BME280;46978;50.288;28.624;2022-12-20T04:19:18;100445.98;;;-6.09;75.72
60337;BME280;46978;50.288;28.624;2022-12-20T04:20:19;100441.03;;;-6.08;75.51
60337;BME280;46978;50.288;28.624;2022-12-20T04:21:30;100443.75;;;-6.05;75.19
60337;BME280;46978;50.288;28.624;2022-12-20T04:22:32;100443.86;;;-6.03;74.85
60337;BME280;46978;50.288;28.624;2022-12-20T04:23:36;100449.01;;;-6.02;74.34
60337;BME280;46978;50.288;28.624;2022-12-20T04:24:38;100451.73;;;-5.99;74.69
60337;BME280;46978;50.288;28.624;2022-12-20T04:25:39;100448.52;;;-5.96;74.80
60337;BME280;46978;50.288;28.624;2022-12-20T04:26:41;100449.38;;;-5.96;73.97
60337;BME280;46978;50.288;28.624;2022-12-20T04:27:43;100456.39;;;-5.91;74.11
60337;BME280;46978;50.288;28.624;2022-12-20T04:28:45;100457.26;;;-5.91;74.38
60337;BME280;46978;50.288;28.624;2022-12-20T04:29:46;100443.95;;;-5.88;74.32
60337;BME280;46978;50.288;28.624;2022-12-20T04:30:49;100446.59;;;-5.87;73.28
60337;BME280;46978;50.288;28.624;2022-12-20T04:31:50;100447.65;;;-5.83;73.81
60337;BME280;46978;50.288;28.624;2022-12-20T04:32:52;100448.61;;;-5.81;73.99
60337;BME280;46978;50.288;28.624;2022-12-20T04:33:54;100452.14;;;-5.79;73.85
60337;BME280;46978;50.288;28.624;2022-12-20T04:34:55;100457.30;;;-5.78;73.97
60337;BME280;46978;50.288;28.624;2022-12-20T04:35:57;100460.78;;;-5.76;73.17
60337;BME280;46978;50.288;28.624;2022-12-20T04:36:59;100449.91;;;-5.74;73.86
60337;BME280;46978;50.288;28.624;2022-12-20T04:38:01;100451.64;;;-5.73;74.21
60337;BME280;46978;50.288;28.624;2022-12-20T04:39:03;100446.68;;;-5.72;74.05
60337;BME280;46978;50.288;28.624;2022-12-20T04:40:06;100435.03;;;-5.70;73.83
60337;BME280;46978;50.288;28.624;2022-12-20T04:41:08;100433.37;;;-5.69;73.85
60337;BME280;46978;50.288;28.624;2022-12-20T04:42:10;100422.48;;;-5.68;73.55
60337;BME280;46978;50.288;28.624;2022-12-20T04:43:11;100418.40;;;-5.66;73.17
60337;BME280;46978;50.288;28.624;2022-12-20T04:44:13;100417.63;;;-5.65;73.25
60337;BME280;46978;50.288;28.624;2022-12-20T04:45:15;100411.77;;;-5.64;72.58
60337;BME280;46978;50.288;28.624;2022-12-20T04:46:17;100401.75;;;-5.63;72.61
60337;BME280;46978;50.288;28.624;2022-12-20T04:47:19;100415.39;;;-5.61;72.79
60337;BME280;46978;50.288;28.624;2022-12-20T04:48:22;100405.28;;;-5.61;72.71
60337;BME280;46978;50.288;28.624;2022-12-20T04:49:24;100408.00;;;-5.57;72.11
60337;BME280;46978;50.288;28.624;2022-12-20T04:50:26;100407.30;;;-5.55;72.26
60337;BME280;46978;50.288;28.624;2022-12-20T04:51:28;100410.73;;;-5.54;72.34
60337;BME280;46978;50.288;28.624;2022-12-20T04:52:30;100404.87;;;-5.53;72.75
60337;BME280;46978;50.288;28.624;2022-12-20T04:53:32;100404.87;;;-5.53;72.12
60337;BME280;46978;50.288;28.624;2022-12-20T04:54:33;100401.57;;;-5.52;72.28
60337;BME280;46978;50.288;28.624;2022-12-20T04:55:39;100405.86;;;-5.51;72.16
60337;BME280;46978;50.288;28.624;2022-12-20T04:56:41;100401.77;;;-5.49;71.79
60337;BME280;46978;50.288;28.624;2022-12-20T04:57:43;100405.25;;;-5.47;71.83
60337;BME280;46978;50.288;28.624;2022-12-20T04:58:45;100406.15;;;-5.47;71.60
60337;BME280;46978;50.288;28.624;2022-12-20T04:59:48;100411.20;;;-5.47;71.72
60337;BME280;46978;50.288;28.624;2022-12-20T05:00:50;100408.88;;;-5.44;71.40
60337;BME280;46978;50.288;28.624;2022-12-20T05:01:52;100408.88;;;-5.44;71.40
60337;BME280;46978;50.288;28.624;2022-12-20T05:02:54;100403.81;;;-5.44;71.80
60337;BME280;46978;50.288;28.624;2022-12-20T05:03:56;100399.62;;;-5.43;71.65
60337;BME280;46978;50.288;28.624;2022-12-20T05:04:57;100392.98;;;-5.41;70.46
60337;BME280;46978;50.288;28.624;2022-12-20T05:05:59;100403.30;;;-5.38;70.37
60337;BME280;46978;50.288;28.624;2022-12-20T05:07:01;100383.25;;;-5.35;70.43
60337;BME280;46978;50.288;28.624;2022-12-20T05:08:03;100383.25;;;-5.35;70.43
60337;BME280;46978;50.288;28.624;2022-12-20T05:09:05;100381.72;;;-5.33;69.98
60337;BME280;46978;50.288;28.624;2022-12-20T05:18:37;100368.52;;;-5.14;69.46
60337;BME280;46978;50.288;28.624;2022-12-20T05:19:39;100368.05;;;-5.22;69.14
60337;BME280;46978;50.288;28.624;2022-12-20T05:20:41;100377.38;;;-5.20;69.01
60337;BME280;46978;50.288;28.624;2022-12-20T05:21:43;100378.36;;;-5.18;69.26
60337;BME280;46978;50.288;28.624;2022-12-20T05:22:44;100386.91;;;-5.16;69.38
60337;BME280;46978;50.288;28.624;2022-12-20T05:23:46;100380.19;;;-5.16;68.95
60337;BME280;46978;50.288;28.624;2022-12-20T05:24:48;100382.91;;;-5.13;68.83
60337;BME280;46978;50.288;28.624;2022-12-20T05:25:50;100388.06;;;-5.11;68.68
60337;BME280;46978;50.288;28.624;2022-12-20T05:26:53;100392.44;;;-5.09;68.81
60337;BME280;46978;50.288;28.624;2022-12-20T05:27:55;100390.10;;;-5.06;68.19
60337;BME280;46978;50.288;28.624;2022-12-20T05:28:57;100389.52;;;-5.01;67.76
60337;BME280;46978;50.288;28.624;2022-12-20T05:29:58;100393.86;;;-4.99;68.11
60337;BME280;46978;50.288;28.624;2022-12-20T05:31:01;100400.02;;;-4.95;68.06
60337;BME280;46978;50.288;28.624;2022-12-20T05:32:03;100395.05;;;-4.94;67.94
60337;BME280;46978;50.288;28.624;2022-12-20T05:33:05;100396.86;;;-4.91;67.81
60337;BME280;46978;50.288;28.624;2022-12-20T05:34:06;100393.66;;;-4.89;67.19
60337;BME280;46978;50.288;28.624;2022-12-20T05:35:08;100397.23;;;-4.85;67.59
60337;BME280;46978;50.288;28.624;2022-12-20T05:36:10;100395.69;;;-4.83;67.45
60337;BME280;46978;50.288;28.624;2022-12-20T05:37:12;100394.98;;;-4.80;67.86
60337;BME280;46978;50.288;28.624;2022-12-20T05:38:13;100385.84;;;-4.78;67.84
60337;BME280;46978;50.288;28.624;2022-12-20T05:39:15;100383.39;;;-4.77;67.42
60337;BME280;46978;50.288;28.624;2022-12-20T05:40:17;100381.73;;;-4.76;67.20
60337;BME280;46978;50.288;28.624;2022-12-20T05:41:18;100376.84;;;-4.73;66.52
60337;BME280;46978;50.288;28.624;2022-12-20T05:42:20;100383.77;;;-4.71;66.50
60337;BME280;46978;50.288;28.624;2022-12-20T05:43:22;100368.66;;;-4.69;66.74
60337;BME280;46978;50.288;28.624;2022-12-20T05:44:23;100367.08;;;-4.67;66.64
60337;BME280;46978;50.288;28.624;2022-12-20T05:45:25;100365.50;;;-4.65;66.33
60337;BME280;46978;50.288;28.624;2022-12-20T05:46:27;100358.89;;;-4.63;66.88
60337;BME280;46978;50.288;28.624;2022-12-20T05:47:28;100352.24;;;-4.61;66.93
60337;BME280;46978;50.288;28.624;2022-12-20T05:48:30;100358.27;;;-4.59;67.16